createdAt,value
2022-12-17T00:01:32.333Z,59.10
2022-12-17T00:03:53.060Z,59.00
2022-12-17T00:06:17.684Z,59.00
2022-12-17T00:08:38.979Z,59.10
2022-12-17T00:10:59.798Z,59.00
2022-12-17T00:13:21.903Z,58.90
2022-12-17T00:15:45.608Z,59.00
2022-12-17T00:18:07.176Z,59.40
2022-12-17T00:20:28.168Z,59.40
2022-12-17T00:22:48.485Z,59.30
2022-12-17T00:25:08.667Z,59.00
2022-12-17T00:27:30.156Z,58.90
2022-12-17T00:29:50.561Z,58.70
2022-12-17T00:32:12.249Z,58.90
2022-12-17T00:34:32.519Z,59.00
2022-12-17T00:36:52.833Z,59.00
2022-12-17T00:39:12.941Z,58.80
2022-12-17T00:41:32.855Z,59.20
2022-12-17T00:43:53.687Z,58.30
2022-12-17T00:46:16.971Z,58.30
2022-12-17T00:48:37.995Z,58.50
2022-12-17T00:50:58.325Z,59.20
2022-12-17T00:53:18.785Z,58.60
2022-12-17T00:55:38.979Z,58.60
2022-12-17T00:57:59.218Z,58.50
2022-12-17T01:00:27.029Z,58.60
2022-12-17T01:02:47.359Z,58.40
2022-12-17T01:05:12.380Z,58.50
2022-12-17T01:07:32.675Z,58.70
2022-12-17T01:09:52.925Z,58.80
2022-12-17T01:12:13.115Z,58.80
2022-12-17T01:14:33.271Z,58.60
2022-12-17T01:16:53.403Z,58.40
2022-12-17T01:19:16.853Z,58.30
2022-12-17T01:21:37.369Z,58.40
2022-12-17T01:23:57.807Z,58.40
2022-12-17T01:26:17.938Z,58.20
2022-12-17T01:28:41.450Z,58.40
2022-12-17T01:31:18.275Z,58.50
2022-12-17T01:33:39.190Z,58.50
2022-12-17T01:35:59.724Z,58.40
2022-12-17T01:38:20.168Z,58.60
2022-12-17T01:40:40.295Z,58.70
2022-12-17T01:43:01.538Z,58.70
2022-12-17T01:45:22.125Z,58.70
2022-12-17T01:47:46.133Z,58.60
2022-12-17T01:50:06.299Z,58.50
2022-12-17T01:52:27.197Z,58.30
2022-12-17T01:54:47.341Z,58.20
2022-12-17T01:57:08.936Z,58.40
2022-12-17T01:59:30.511Z,58.50
2022-12-17T02:01:51.015Z,58.50
2022-12-17T02:04:11.414Z,58.50
2022-12-17T02:06:40.013Z,58.40
2022-12-17T02:09:17.819Z,58.30
2022-12-17T02:11:44.066Z,58.60
2022-12-17T02:14:09.737Z,58.60
2022-12-17T02:16:35.915Z,58.50
2022-12-17T02:18:59.014Z,58.30
2022-12-17T02:21:20.526Z,58.30
2022-12-17T02:23:40.984Z,58.10
2022-12-17T02:26:04.622Z,57.90
2022-12-17T02:28:25.166Z,58.30
2022-12-17T02:30:46.334Z,58.40
2022-12-17T02:33:08.029Z,58.30
2022-12-17T02:35:35.739Z,58.20
2022-12-17T02:37:55.723Z,58.20
2022-12-17T02:40:16.397Z,58.10
2022-12-17T02:42:40.482Z,58.10
2022-12-17T02:45:02.894Z,57.90
2022-12-17T02:47:24.909Z,58.10
2022-12-17T02:49:45.451Z,58.30
2022-12-17T02:52:07.434Z,58.30
2022-12-17T02:54:27.675Z,58.40
2022-12-17T02:56:48.330Z,58.20
2022-12-17T02:59:08.326Z,58.10
2022-12-17T03:01:28.502Z,58.30
2022-12-17T03:03:50.532Z,58.40
2022-12-17T03:06:11.035Z,58.40
2022-12-17T03:08:32.222Z,58.30
2022-12-17T03:10:52.452Z,58.20
2022-12-17T03:13:12.612Z,58.10
2022-12-17T03:15:33.212Z,58.10
2022-12-17T03:17:53.439Z,57.90
2022-12-17T03:20:13.644Z,57.80
2022-12-17T03:22:33.844Z,57.90
2022-12-17T03:24:54.056Z,57.80
2022-12-17T03:27:14.157Z,57.80
2022-12-17T03:29:34.288Z,57.60
2022-12-17T03:31:54.367Z,57.60
2022-12-17T03:34:14.348Z,57.50
2022-12-17T03:36:34.567Z,57.50
2022-12-17T03:38:54.759Z,57.50
2022-12-17T03:41:16.914Z,57.60
2022-12-17T03:43:37.403Z,57.60
2022-12-17T03:45:58.062Z,57.70
2022-12-17T03:48:29.214Z,57.70
2022-12-17T03:50:49.421Z,57.60
2022-12-17T03:53:09.606Z,57.50
2022-12-17T03:55:29.736Z,57.60
2022-12-17T03:57:49.878Z,57.50
2022-12-17T04:00:10.078Z,57.50
2022-12-17T04:02:33.308Z,57.50
2022-12-17T04:04:53.698Z,57.50
2022-12-17T04:07:14.053Z,57.40
2022-12-17T04:09:34.705Z,57.60
2022-12-17T04:11:54.604Z,57.70
2022-12-17T04:14:16.713Z,57.50
2022-12-17T04:16:36.670Z,57.60
2022-12-17T04:18:56.802Z,57.60
2022-12-17T04:21:16.962Z,57.60
2022-12-17T04:23:37.938Z,57.60
2022-12-17T04:25:58.364Z,57.70
2022-12-17T04:28:18.588Z,57.60
2022-12-17T04:30:38.805Z,57.60
2022-12-17T04:32:59.465Z,57.60
2022-12-17T04:35:19.724Z,57.60
2022-12-17T04:37:39.898Z,58.00
2022-12-17T04:39:59.954Z,58.40
2022-12-17T04:42:20.139Z,58.50
2022-12-17T04:44:40.277Z,58.90
2022-12-17T04:47:00.660Z,59.90
2022-12-17T04:49:20.832Z,59.20
2022-12-17T04:51:40.949Z,59.20
2022-12-17T04:54:01.288Z,59.30
2022-12-17T04:56:21.231Z,59.30
2022-12-17T04:58:41.384Z,59.80
2022-12-17T05:01:01.668Z,59.40
2022-12-17T05:03:22.897Z,59.60
2022-12-17T05:05:43.470Z,59.50
2022-12-17T05:08:03.584Z,59.30
2022-12-17T05:10:24.416Z,59.10
2022-12-17T05:12:44.604Z,58.80
2022-12-17T05:15:04.747Z,58.60
2022-12-17T05:17:25.044Z,58.60
2022-12-17T05:19:45.152Z,58.30
2022-12-17T05:22:05.471Z,58.30
2022-12-17T05:24:25.720Z,58.20
2022-12-17T05:26:46.839Z,58.10
2022-12-17T05:29:08.058Z,58.00
2022-12-17T05:31:30.281Z,58.00
2022-12-17T05:33:50.685Z,57.90
2022-12-17T05:36:10.896Z,57.90
2022-12-17T05:38:30.997Z,57.80
2022-12-17T05:40:51.870Z,57.90
2022-12-17T05:43:15.075Z,57.80
2022-12-17T05:45:35.175Z,57.70
2022-12-17T05:47:55.557Z,57.70
2022-12-17T05:50:16.620Z,57.60
2022-12-17T05:52:36.895Z,57.80
2022-12-17T05:54:57.105Z,58.20
2022-12-17T05:57:17.441Z,58.30
2022-12-17T05:59:37.612Z,58.30
2022-12-17T06:01:58.101Z,58.20
2022-12-17T06:04:18.760Z,58.20
2022-12-17T06:06:39.343Z,58.00
2022-12-17T06:08:59.694Z,57.80
2022-12-17T06:11:20.015Z,57.70
2022-12-17T06:13:40.750Z,57.60
2022-12-17T06:16:01.069Z,57.70
2022-12-17T06:18:21.671Z,57.90
2022-12-17T06:20:41.845Z,57.80
2022-12-17T06:23:02.026Z,57.90
2022-12-17T06:25:22.464Z,58.20
2022-12-17T06:27:42.844Z,58.10
2022-12-17T06:30:02.903Z,58.00
2022-12-17T06:32:23.107Z,57.90
2022-12-17T06:34:43.436Z,58.00
2022-12-17T06:37:03.996Z,57.80
2022-12-17T06:39:24.119Z,57.70
2022-12-17T06:41:44.308Z,57.70
2022-12-17T06:44:04.435Z,57.90
2022-12-17T06:46:24.587Z,58.10
2022-12-17T06:48:45.142Z,58.40
2022-12-17T06:51:05.630Z,58.40
2022-12-17T06:53:26.043Z,58.40
2022-12-17T06:55:46.108Z,58.30
2022-12-17T06:58:06.041Z,58.30
2022-12-17T07:00:26.714Z,58.20
2022-12-17T07:02:47.239Z,58.20
2022-12-17T07:05:07.841Z,58.00
2022-12-17T07:07:27.989Z,57.90
2022-12-17T07:09:48.141Z,57.90
2022-12-17T07:12:08.399Z,57.90
2022-12-17T07:14:28.792Z,58.10
2022-12-17T07:16:49.308Z,58.10
2022-12-17T07:19:09.748Z,58.10
2022-12-17T07:21:29.996Z,58.00
2022-12-17T07:23:50.736Z,58.10
2022-12-17T07:26:10.960Z,58.30
2022-12-17T07:28:31.018Z,58.20
2022-12-17T07:30:55.625Z,58.10
2022-12-17T07:33:19.866Z,58.10
2022-12-17T07:35:40.056Z,58.10
2022-12-17T07:38:00.201Z,58.10
2022-12-17T07:40:20.695Z,58.20
2022-12-17T07:42:40.625Z,58.60
2022-12-17T07:45:00.776Z,58.90
2022-12-17T07:47:20.881Z,58.90
2022-12-17T07:49:41.072Z,58.90
2022-12-17T07:52:01.282Z,58.90
2022-12-17T07:54:21.442Z,58.80
2022-12-17T07:56:41.527Z,58.70
2022-12-17T07:59:01.764Z,58.80
2022-12-17T08:01:22.011Z,58.60
2022-12-17T08:03:42.678Z,58.50
2022-12-17T08:06:02.954Z,58.70
2022-12-17T08:08:30.486Z,59.30
2022-12-17T08:10:50.911Z,59.80
2022-12-17T08:13:21.173Z,59.80
2022-12-17T08:15:41.363Z,60.10
2022-12-17T08:18:01.747Z,60.10
2022-12-17T08:20:22.149Z,60.20
2022-12-17T08:22:42.536Z,60.00
2022-12-17T08:25:02.686Z,60.00
2022-12-17T08:27:23.066Z,59.90
2022-12-17T08:29:43.152Z,59.70
2022-12-17T08:32:03.425Z,59.70
2022-12-17T08:34:23.717Z,59.80
2022-12-17T08:36:44.171Z,60.00
2022-12-17T08:39:04.341Z,59.90
2022-12-17T08:41:24.482Z,59.70
2022-12-17T08:43:44.554Z,59.40
2022-12-17T08:46:05.870Z,59.20
2022-12-17T08:48:26.851Z,59.10
2022-12-17T08:50:46.992Z,59.20
2022-12-17T08:53:07.631Z,59.10
2022-12-17T08:55:28.009Z,59.00
2022-12-17T08:57:48.231Z,59.00
2022-12-17T09:00:08.724Z,59.00
2022-12-17T09:02:28.996Z,59.00
2022-12-17T09:04:49.441Z,59.20
2022-12-17T09:07:09.776Z,59.30
2022-12-17T09:09:30.017Z,59.40
2022-12-17T09:11:50.190Z,59.30
2022-12-17T09:14:10.510Z,59.20
2022-12-17T09:16:31.141Z,59.10
2022-12-17T09:18:51.580Z,59.10
2022-12-17T09:21:12.734Z,58.90
2022-12-17T09:23:36.430Z,58.90
2022-12-17T09:25:58.294Z,58.80
2022-12-17T09:28:19.364Z,58.90
2022-12-17T09:30:39.585Z,59.70
2022-12-17T09:32:59.630Z,59.00
2022-12-17T09:35:19.869Z,58.90
2022-12-17T09:37:40.031Z,58.90
2022-12-17T09:40:00.231Z,58.90
2022-12-17T09:42:35.986Z,59.00
2022-12-17T09:45:05.330Z,59.10
2022-12-17T09:47:38.647Z,59.10
2022-12-17T09:49:59.018Z,60.00
2022-12-17T09:52:19.122Z,59.40
2022-12-17T09:55:01.464Z,59.50
2022-12-17T09:57:23.318Z,59.50
2022-12-17T09:59:45.623Z,59.70
2022-12-17T10:02:05.986Z,59.80
2022-12-17T10:04:38.887Z,60.00
2022-12-17T10:06:59.121Z,60.00
2022-12-17T10:09:20.362Z,60.10
2022-12-17T10:11:45.642Z,60.20
2022-12-17T10:14:06.214Z,60.20
2022-12-17T10:16:52.603Z,60.20
2022-12-17T10:19:20.369Z,60.20
2022-12-17T10:21:40.676Z,60.20
2022-12-17T10:24:00.922Z,60.10
2022-12-17T10:26:24.603Z,60.10
2022-12-17T10:28:44.932Z,60.00
2022-12-17T10:31:06.302Z,60.00
2022-12-17T10:33:30.234Z,60.20
2022-12-17T10:35:54.606Z,60.10
2022-12-17T10:38:15.192Z,60.10
2022-12-17T10:40:45.550Z,60.10
2022-12-17T10:43:05.649Z,60.10
2022-12-17T10:45:39.390Z,60.10
2022-12-17T10:48:02.345Z,60.10
2022-12-17T10:50:27.903Z,59.90
2022-12-17T10:52:49.803Z,59.80
2022-12-17T10:55:18.390Z,59.80
2022-12-17T10:57:38.805Z,59.80
2022-12-17T10:59:59.452Z,59.70
2022-12-17T11:02:19.942Z,59.50
2022-12-17T11:04:42.058Z,59.40
2022-12-17T11:07:05.419Z,59.10
2022-12-17T11:09:31.915Z,59.30
2022-12-17T11:11:52.617Z,59.30
2022-12-17T11:14:13.876Z,59.30
2022-12-17T11:16:42.457Z,59.30
2022-12-17T11:19:16.897Z,59.30
2022-12-17T11:21:41.785Z,59.10
2022-12-17T11:24:04.603Z,59.00
2022-12-17T11:26:27.149Z,59.00
2022-12-17T11:28:48.298Z,58.90
2022-12-17T11:31:12.296Z,58.80
2022-12-17T11:33:39.990Z,58.80
2022-12-17T11:36:36.789Z,58.70
2022-12-17T11:39:31.350Z,58.70
2022-12-17T11:42:11.626Z,58.60
2022-12-17T11:44:40.423Z,58.30
2022-12-17T11:47:00.894Z,58.10
2022-12-17T11:49:40.558Z,58.30
2022-12-17T11:52:20.863Z,58.10
2022-12-17T11:54:44.054Z,57.80
2022-12-17T11:57:08.139Z,58.00
2022-12-17T11:59:54.930Z,58.00
2022-12-17T12:02:28.342Z,58.00
2022-12-17T12:05:07.047Z,58.00
2022-12-17T12:07:30.303Z,58.10
2022-12-17T12:09:56.574Z,58.20
2022-12-17T12:12:23.094Z,58.20
2022-12-17T12:15:07.400Z,57.90
2022-12-17T12:17:36.857Z,58.00
2022-12-17T12:20:14.135Z,57.90
2022-12-17T12:22:49.910Z,58.00
2022-12-17T12:25:12.991Z,57.80
2022-12-17T12:27:42.256Z,57.60
2022-12-17T12:30:19.521Z,57.60
2022-12-17T12:32:58.702Z,57.60
2022-12-17T12:35:21.924Z,57.70
2022-12-17T12:37:42.509Z,57.80
2022-12-17T12:40:22.522Z,57.80
2022-12-17T12:42:46.169Z,57.60
2022-12-17T12:45:25.400Z,57.50
2022-12-17T12:47:53.501Z,57.50
2022-12-17T12:50:35.320Z,57.50
2022-12-17T12:52:56.091Z,57.10
2022-12-17T12:55:16.234Z,57.20
2022-12-17T12:57:55.848Z,57.00
2022-12-17T13:00:26.852Z,56.80
2022-12-17T13:02:49.353Z,56.90
2022-12-17T13:05:12.353Z,56.80
2022-12-17T13:07:27.417Z,57.10
2022-12-17T13:09:36.990Z,56.90
2022-12-17T13:11:38.907Z,56.50
2022-12-17T13:13:55.738Z,56.70
2022-12-17T13:16:01.946Z,56.70
2022-12-17T13:18:14.329Z,56.90
2022-12-17T13:20:24.197Z,57.00
2022-12-17T13:22:25.828Z,57.00
2022-12-17T13:24:27.690Z,56.90
2022-12-17T13:26:41.301Z,56.70
2022-12-17T13:28:44.316Z,56.30
2022-12-17T13:30:46.104Z,56.40
2022-12-17T13:33:08.053Z,56.50
2022-12-17T13:35:21.635Z,56.30
2022-12-17T13:37:23.380Z,56.40
2022-12-17T13:39:25.063Z,56.50
2022-12-17T13:41:33.962Z,56.60
2022-12-17T13:43:56.966Z,56.60
2022-12-17T13:45:58.947Z,56.50
2022-12-17T13:48:00.678Z,56.50
2022-12-17T13:50:32.753Z,56.40
2022-12-17T13:52:27.600Z,56.50
2022-12-17T13:54:29.391Z,56.30
2022-12-17T13:56:34.973Z,56.30
2022-12-17T13:58:37.710Z,56.40
2022-12-17T14:00:39.589Z,56.40
2022-12-17T14:02:42.429Z,56.40
2022-12-17T14:04:44.192Z,56.40
2022-12-17T14:06:45.970Z,56.30
2022-12-17T14:08:48.592Z,56.00
2022-12-17T14:11:14.386Z,56.00
2022-12-17T14:13:16.434Z,55.90
2022-12-17T14:15:25.547Z,55.90
2022-12-17T14:17:45.061Z,55.80
2022-12-17T14:19:47.476Z,55.70
2022-12-17T14:21:49.196Z,55.60
2022-12-17T14:23:51.732Z,55.60
2022-12-17T14:25:53.988Z,55.50
2022-12-17T14:27:57.710Z,55.40
2022-12-17T14:29:59.371Z,55.30
2022-12-17T14:32:02.932Z,55.30
2022-12-17T14:34:08.443Z,55.30
2022-12-17T14:36:16.374Z,55.30
2022-12-17T14:38:36.945Z,55.30
2022-12-17T14:40:40.931Z,55.20
2022-12-17T14:42:42.844Z,55.30
2022-12-17T14:44:52.756Z,55.30
2022-12-17T14:47:06.450Z,55.30
2022-12-17T14:49:15.454Z,55.30
2022-12-17T14:51:24.509Z,55.50
2022-12-17T14:53:26.877Z,55.50
2022-12-17T14:55:31.602Z,55.60
2022-12-17T14:57:33.267Z,55.60
2022-12-17T14:59:37.004Z,55.60
2022-12-17T15:01:38.770Z,55.70
2022-12-17T15:03:41.819Z,55.90
2022-12-17T15:05:43.735Z,55.80
2022-12-17T15:07:45.633Z,55.80
2022-12-17T15:09:47.300Z,56.10
2022-12-17T15:11:49.228Z,56.00
2022-12-17T15:13:56.032Z,56.00
2022-12-17T15:15:58.132Z,56.00
2022-12-17T15:17:59.884Z,55.90
2022-12-17T15:20:01.637Z,55.90
2022-12-17T15:22:04.133Z,55.90
2022-12-17T15:24:06.775Z,55.80
2022-12-17T15:26:09.527Z,55.90
2022-12-17T15:28:11.391Z,56.00
2022-12-17T15:30:14.567Z,56.10
2022-12-17T15:32:20.282Z,56.70
2022-12-17T15:34:24.542Z,56.80
2022-12-17T15:36:26.244Z,56.90
2022-12-17T15:38:27.909Z,57.20
2022-12-17T15:40:29.624Z,57.30
2022-12-17T15:42:50.612Z,57.40
2022-12-17T15:44:52.729Z,57.40
2022-12-17T15:46:54.716Z,57.20
2022-12-17T15:48:56.761Z,57.10
2022-12-17T15:50:58.441Z,56.90
2022-12-17T15:53:00.254Z,56.80
2022-12-17T15:55:01.916Z,56.90
2022-12-17T15:57:03.694Z,57.30
2022-12-17T15:59:08.000Z,57.50
2022-12-17T16:01:09.660Z,57.70
2022-12-17T16:03:11.533Z,57.80
2022-12-17T16:05:13.369Z,57.70
2022-12-17T16:07:16.333Z,57.60
2022-12-17T16:09:17.967Z,57.60
2022-12-17T16:11:20.134Z,57.40
2022-12-17T16:13:21.913Z,57.20
2022-12-17T16:15:23.588Z,57.20
2022-12-17T16:17:25.211Z,57.20
2022-12-17T16:19:26.902Z,57.60
2022-12-17T16:21:28.555Z,57.40
2022-12-17T16:23:30.350Z,57.30
2022-12-17T16:25:32.165Z,57.30
2022-12-17T16:27:33.837Z,57.20
2022-12-17T16:29:35.594Z,57.10
2022-12-17T16:31:37.507Z,57.10
2022-12-17T16:33:40.315Z,57.40
2022-12-17T16:35:49.972Z,57.50
2022-12-17T16:37:51.796Z,57.70
2022-12-17T16:39:59.760Z,57.90
2022-12-17T16:42:01.999Z,57.90
2022-12-17T16:44:04.673Z,57.90
2022-12-17T16:46:22.664Z,58.00
2022-12-17T16:48:24.571Z,58.10
2022-12-17T16:50:27.382Z,57.90
2022-12-17T16:52:29.189Z,57.90
2022-12-17T16:54:32.387Z,57.90
2022-12-17T16:56:39.720Z,58.00
2022-12-17T16:58:42.346Z,58.10
2022-12-17T17:00:45.629Z,58.20
2022-12-17T17:02:52.963Z,58.20
2022-12-17T17:04:55.240Z,58.30
2022-12-17T17:06:57.218Z,58.30
2022-12-17T17:08:59.008Z,58.30
2022-12-17T17:11:09.055Z,58.30
2022-12-17T17:13:10.786Z,58.30
2022-12-17T17:15:12.530Z,58.20
2022-12-17T17:17:14.898Z,58.20
2022-12-17T17:19:16.968Z,58.20
2022-12-17T17:21:18.629Z,58.10
2022-12-17T17:23:20.277Z,58.00
2022-12-17T17:25:22.179Z,58.00
2022-12-17T17:27:23.937Z,58.10
2022-12-17T17:29:25.719Z,58.20
2022-12-17T17:32:01.061Z,58.10
2022-12-17T17:33:50.342Z,58.00
2022-12-17T17:35:52.029Z,57.90
2022-12-17T17:37:53.773Z,57.90
2022-12-17T17:39:55.430Z,57.90
2022-12-17T17:41:57.153Z,57.90
2022-12-17T17:44:00.130Z,58.20
2022-12-17T17:46:05.965Z,58.30
2022-12-17T17:48:07.754Z,58.40
2022-12-17T17:50:09.639Z,58.50
2022-12-17T17:52:12.215Z,58.90
2022-12-17T17:54:14.487Z,59.10
2022-12-17T17:56:17.667Z,59.00
2022-12-17T17:58:19.531Z,59.00
2022-12-17T18:00:21.302Z,59.00
2022-12-17T18:02:23.219Z,59.00
2022-12-17T18:04:25.151Z,58.90
2022-12-17T18:06:27.077Z,59.00
2022-12-17T18:08:29.618Z,59.00
2022-12-17T18:10:31.909Z,59.40
2022-12-17T18:12:52.133Z,59.20
2022-12-17T18:17:15.959Z,59.20
2022-12-17T18:19:18.852Z,59.00
2022-12-17T18:21:20.657Z,58.90
2022-12-17T18:23:22.346Z,58.90
2022-12-17T18:25:24.197Z,58.90
2022-12-17T18:27:25.903Z,58.90
2022-12-17T18:29:28.880Z,59.50
2022-12-17T18:31:30.699Z,58.90
2022-12-17T18:33:32.558Z,59.00
2022-12-17T18:35:34.372Z,58.80
2022-12-17T18:37:37.035Z,58.90
2022-12-17T18:39:38.794Z,59.00
2022-12-17T18:41:59.452Z,59.10
2022-12-17T18:44:02.237Z,59.30
2022-12-17T18:46:03.982Z,59.50
2022-12-17T18:48:05.992Z,59.40
2022-12-17T18:50:07.854Z,59.20
2022-12-17T18:52:16.289Z,59.20
2022-12-17T18:54:20.474Z,59.20
2022-12-17T18:56:44.809Z,59.20
2022-12-17T18:58:44.173Z,59.50
2022-12-17T19:00:45.956Z,59.30
2022-12-17T19:02:47.788Z,59.20
2022-12-17T19:04:49.705Z,59.20
2022-12-17T19:06:53.408Z,59.00
2022-12-17T19:08:55.210Z,59.00
2022-12-17T19:11:02.984Z,59.00
2022-12-17T19:13:04.700Z,58.90
2022-12-17T19:15:06.762Z,58.90
2022-12-17T19:17:09.422Z,58.90
2022-12-17T19:19:11.540Z,58.80
2022-12-17T19:21:15.943Z,58.80
2022-12-17T19:23:17.726Z,58.80
2022-12-17T19:25:19.403Z,58.80
2022-12-17T19:27:21.108Z,58.80
2022-12-17T19:29:22.923Z,58.70
2022-12-17T19:31:26.415Z,58.60
2022-12-17T19:33:28.179Z,58.50
2022-12-17T19:35:29.878Z,58.60
2022-12-17T19:37:31.649Z,58.80
2022-12-17T19:39:33.356Z,58.70
2022-12-17T19:41:35.149Z,58.80
2022-12-17T19:43:37.418Z,58.90
2022-12-17T19:45:39.594Z,59.00
2022-12-17T19:47:41.348Z,59.10
2022-12-17T19:49:43.010Z,59.00
2022-12-17T19:51:45.019Z,59.00
2022-12-17T19:53:47.122Z,59.30
2022-12-17T19:55:48.932Z,59.50
2022-12-17T19:57:50.606Z,59.40
2022-12-17T19:59:52.243Z,59.40
2022-12-17T20:01:54.565Z,59.40
2022-12-17T20:03:56.508Z,59.30
2022-12-17T20:05:58.659Z,59.40
2022-12-17T20:08:00.353Z,59.40
2022-12-17T20:10:02.085Z,59.30
2022-12-17T20:12:03.892Z,59.20
2022-12-17T20:14:13.156Z,59.40
2022-12-17T20:16:15.015Z,59.50
2022-12-17T20:18:16.881Z,59.60
2022-12-17T20:20:18.760Z,59.40
2022-12-17T20:22:20.473Z,59.40
2022-12-17T20:24:28.810Z,59.50
2022-12-17T20:26:32.490Z,59.40
2022-12-17T20:28:34.811Z,59.40
2022-12-17T20:30:38.494Z,59.50
2022-12-17T20:32:40.192Z,59.60
2022-12-17T20:34:41.853Z,59.70
2022-12-17T20:36:43.804Z,59.70
2022-12-17T20:38:45.563Z,59.50
2022-12-17T20:40:48.217Z,59.50
2022-12-17T20:42:51.267Z,59.40
2022-12-17T20:44:53.634Z,59.40
2022-12-17T20:46:55.612Z,59.40
2022-12-17T20:48:58.550Z,59.50
2022-12-17T20:51:03.807Z,59.60
2022-12-17T20:53:05.514Z,59.50
2022-12-17T20:55:07.418Z,59.70
2022-12-17T20:57:09.135Z,59.80
2022-12-17T20:59:14.454Z,59.70
2022-12-17T21:01:18.656Z,59.50
2022-12-17T21:03:20.563Z,59.40
2022-12-17T21:05:22.291Z,59.40
2022-12-17T21:07:24.050Z,59.40
2022-12-17T21:09:25.790Z,59.40
2022-12-17T21:11:29.183Z,59.70
2022-12-17T21:13:31.365Z,59.90
2022-12-17T21:15:33.099Z,59.70
2022-12-17T21:17:34.794Z,59.60
2022-12-17T21:19:36.552Z,59.50
2022-12-17T21:21:38.909Z,59.40
2022-12-17T21:23:40.907Z,59.60
2022-12-17T21:25:42.690Z,59.60
2022-12-17T21:27:44.758Z,59.60
2022-12-17T21:29:46.545Z,59.50
2022-12-17T21:31:49.376Z,59.60
2022-12-17T21:33:51.972Z,59.80
2022-12-17T21:36:00.779Z,59.80
2022-12-17T21:38:02.605Z,60.60
2022-12-17T21:40:04.666Z,59.80
2022-12-17T21:42:24.763Z,59.70
2022-12-17T21:44:26.480Z,59.70
2022-12-17T21:46:28.928Z,59.70
2022-12-17T21:48:31.872Z,59.70
2022-12-17T21:50:43.036Z,59.70
2022-12-17T21:52:45.113Z,59.70
2022-12-17T21:54:46.826Z,59.70
2022-12-17T21:56:48.679Z,59.70
2022-12-17T21:58:54.969Z,59.70
2022-12-17T22:00:56.774Z,59.70
2022-12-17T22:02:58.591Z,59.80
2022-12-17T22:05:00.494Z,59.80
2022-12-17T22:07:04.691Z,59.70
2022-12-17T22:09:21.080Z,59.80
2022-12-17T22:11:32.120Z,59.60
2022-12-17T22:13:54.271Z,59.60
2022-12-17T22:15:56.237Z,59.70
2022-12-17T22:17:57.917Z,59.70
2022-12-17T22:20:00.229Z,59.60
2022-12-17T22:22:01.952Z,59.40
2022-12-17T22:24:04.251Z,59.50
2022-12-17T22:26:08.528Z,59.70
2022-12-17T22:28:10.549Z,59.80
2022-12-17T22:30:32.975Z,59.90
2022-12-17T22:32:53.449Z,59.90
2022-12-17T22:35:43.426Z,59.80
2022-12-17T22:39:20.733Z,59.70
2022-12-17T22:44:30.451Z,59.90
2022-12-17T22:44:38.737Z,59.90
2022-12-17T22:44:53.158Z,59.90
2022-12-17T22:46:55.752Z,59.70
2022-12-17T22:48:57.787Z,59.70
2022-12-17T22:51:12.731Z,59.70
2022-12-17T22:53:21.885Z,59.70
2022-12-17T22:55:23.844Z,59.80
2022-12-17T22:57:34.648Z,60.10
2022-12-17T22:59:38.878Z,60.40
2022-12-17T23:01:41.851Z,60.30
2022-12-17T23:03:44.471Z,60.10
2022-12-17T23:05:46.436Z,60.00
2022-12-17T23:07:49.711Z,60.20
2022-12-17T23:09:51.394Z,60.10
2022-12-17T23:11:53.091Z,60.10
2022-12-17T23:13:55.070Z,60.10
2022-12-17T23:15:56.874Z,59.90
2022-12-17T23:18:00.549Z,59.80
2022-12-17T23:20:02.297Z,59.80
2022-12-17T23:22:03.889Z,59.80
2022-12-17T23:24:05.706Z,59.70
2022-12-17T23:26:08.515Z,59.60
2022-12-17T23:28:10.126Z,59.60
2022-12-17T23:30:12.449Z,59.80
2022-12-17T23:32:14.111Z,59.80
2022-12-17T23:34:16.477Z,60.00
2022-12-17T23:36:19.502Z,60.00
2022-12-17T23:38:21.140Z,60.00
2022-12-17T23:40:23.281Z,60.10
2022-12-17T23:42:24.964Z,60.10
2022-12-17T23:44:26.725Z,60.20
2022-12-17T23:46:29.174Z,60.40
2022-12-17T23:48:32.270Z,60.40
2022-12-17T23:50:33.924Z,60.40
2022-12-17T23:52:35.637Z,60.30
2022-12-17T23:54:37.301Z,60.40
2022-12-17T23:56:38.937Z,60.20
2022-12-17T23:58:42.448Z,60.20
